Cape Magnolia — 3FGP2 — position and weather

sailwx.info

Track history (hours):
 
Tides and Currents Weather Stations Pressure Air Temp Water Temp Dewpoint Dewpoint Depression Visibility Wind Speed Wind Dir Waves Ship Positions

Cape Magnolia

Last reported at 2017-Jan-07 14:27 UTC. Time now 2017-Jan-22 16:26 UTC.
Position S 18°51' E 119°00'.
Warning: this ship's position is 15 days out of date.

Length 292 m; draft 16.2 m.

Type: Cargo ship. MMSI: 357427000.

Date/timePositionNaut miles runAvg speedWind from/ knotsBaromVisibWave heightAir tempDewpointWater temp
2017-Jan-07 14:27S 18°51' E 119°00'910.3
2017-Jan-07 13:33S 18°59' E 118°56'1110.4
2017-Jan-07 12:32S 19°09' E 118°52'1010.6
2017-Jan-07 11:33S 19°18' E 118°47'1310.4
2017-Jan-07 10:18S 19°30' E 118°41'1810.4
2017-Jan-07 08:31S 19°47' E 118°33'1010.4
2017-Jan-07 07:33S 19°56' E 118°28'12 9.4
2017-Jan-07 06:18S 20°08' E 118°29'6 8.6
2017-Jan-07 05:33S 20°13' E 118°33'7 0.2
2017-Jan-05 19:13S 20°19' E 118°35'0 0.0
2017-Jan-05 17:25S 20°19' E 118°35'0 0.0
2017-Jan-05 16:31S 20°19' E 118°35'0 0.0
2017-Jan-05 10:25S 20°19' E 118°35'0 0.3
2017-Jan-05 09:34S 20°20' E 118°35'8 8.1
2017-Jan-05 08:31S 20°11' E 118°33'5 0.8
2017-Jan-05 02:29S 20°07' E 118°31'0 0.0
2017-Jan-05 01:23S 20°07' E 118°31'0 0.2
2017-Jan-05 00:17S 20°06' E 118°31'0 0.0
2017-Jan-04 22:29S 20°06' E 118°31'0 0.1
2017-Jan-04 21:29S 20°06' E 118°31'0 0.0
2017-Jan-04 18:11S 20°06' E 118°31'0 0.0
2017-Jan-04 14:29S 20°06' E 118°31'0 0.0
2017-Jan-04 12:17S 20°06' E 118°31'0 0.1
2017-Jan-04 11:29S 20°06' E 118°31'0 0.0
2017-Jan-04 08:29S 20°06' E 118°31'0 0.0
2017-Jan-04 07:11S 20°07' E 118°31'0 0.4
2017-Jan-04 06:33S 20°06' E 118°31'4 4.2
2017-Jan-04 05:30S 20°02' E 118°32'8 8.1
2017-Jan-04 04:33S 19°55' E 118°29'1111.0
2017-Jan-04 03:33S 19°44' E 118°33'1211.8
2017-Jan-04 02:33S 19°34' E 118°39'4213.9
2017-Jan-03 23:33S 18°56' E 118°57'1211.4
2017-Jan-03 22:32S 18°46' E 119°03'1411.1
2017-Jan-03 21:15S 18°32' E 119°09'810.9
2017-Jan-03 20:33S 18°26' E 119°12'1111.0
2017-Jan-03 19:33S 18°16' E 119°17'1110.9
2017-Jan-03 18:34S 18°06' E 119°22'1110.6
2017-Jan-03 17:33S 17°56' E 119°27'1111.2
2017-Jan-03 16:34S 17°46' E 119°32'2311.2
2017-Jan-03 14:32S 17°26' E 119°41'1111.1
2017-Jan-03 13:32S 17°15' E 119°46'8610.7
2017-Jan-03 05:32S 15°56' E 120°20'  
Track history (hours):
 
Tides and Currents Weather Stations Pressure Air Temp Water Temp Dewpoint Dewpoint Depression Visibility Wind Speed Wind Dir Waves Ship Positions

Cape Magnolia

Last reported at 2017-Jan-07 14:27 UTC. Time now 2017-Jan-22 16:26 UTC.
Position S 18°51' E 119°00'.
Warning: this ship's position is 15 days out of date.

Length 292 m; draft 16.2 m.

Type: Cargo ship. MMSI: 357427000.

Date/timePositionNaut miles runAvg speedWind from/ knotsBaromVisibWave heightAir tempDewpointWater temp
2017-Jan-07 14:27S 18°51' E 119°00'910.3
2017-Jan-07 13:33S 18°59' E 118°56'1110.4
2017-Jan-07 12:32S 19°09' E 118°52'1010.6
2017-Jan-07 11:33S 19°18' E 118°47'1310.4
2017-Jan-07 10:18S 19°30' E 118°41'1810.4
2017-Jan-07 08:31S 19°47' E 118°33'1010.4
2017-Jan-07 07:33S 19°56' E 118°28'12 9.4
2017-Jan-07 06:18S 20°08' E 118°29'6 8.6
2017-Jan-07 05:33S 20°13' E 118°33'7 0.2
2017-Jan-05 19:13S 20°19' E 118°35'0 0.0
2017-Jan-05 17:25S 20°19' E 118°35'0 0.0
2017-Jan-05 16:31S 20°19' E 118°35'0 0.0
2017-Jan-05 10:25S 20°19' E 118°35'0 0.3
2017-Jan-05 09:34S 20°20' E 118°35'8 8.1
2017-Jan-05 08:31S 20°11' E 118°33'5 0.8
2017-Jan-05 02:29S 20°07' E 118°31'0 0.0
2017-Jan-05 01:23S 20°07' E 118°31'0 0.2
2017-Jan-05 00:17S 20°06' E 118°31'0 0.0
2017-Jan-04 22:29S 20°06' E 118°31'0 0.1
2017-Jan-04 21:29S 20°06' E 118°31'0 0.0
2017-Jan-04 18:11S 20°06' E 118°31'0 0.0
2017-Jan-04 14:29S 20°06' E 118°31'0 0.0
2017-Jan-04 12:17S 20°06' E 118°31'0 0.1
2017-Jan-04 11:29S 20°06' E 118°31'0 0.0
2017-Jan-04 08:29S 20°06' E 118°31'0 0.0
2017-Jan-04 07:11S 20°07' E 118°31'0 0.4
2017-Jan-04 06:33S 20°06' E 118°31'4 4.2
2017-Jan-04 05:30S 20°02' E 118°32'8 8.1
2017-Jan-04 04:33S 19°55' E 118°29'1111.0
2017-Jan-04 03:33S 19°44' E 118°33'1211.8
2017-Jan-04 02:33S 19°34' E 118°39'4213.9
2017-Jan-03 23:33S 18°56' E 118°57'1211.4
2017-Jan-03 22:32S 18°46' E 119°03'1411.1
2017-Jan-03 21:15S 18°32' E 119°09'810.9
2017-Jan-03 20:33S 18°26' E 119°12'1111.0
2017-Jan-03 19:33S 18°16' E 119°17'1110.9
2017-Jan-03 18:34S 18°06' E 119°22'1110.6
2017-Jan-03 17:33S 17°56' E 119°27'1111.2
2017-Jan-03 16:34S 17°46' E 119°32'2311.2
2017-Jan-03 14:32S 17°26' E 119°41'1111.1
2017-Jan-03 13:32S 17°15' E 119°46'8610.7
2017-Jan-03 05:32S 15°56' E 120°20'  

Dump ship's entire track history